Time;durP1;ratioP1;P1;durP2;ratioP2;P2;SDS_P1;SDS_P2;PMS_P1;PMS_P2;Temp;Humidity;BMP_temperature;BMP_pressure;BME280_temperature;BME280_humidity;BME280_pressure;Samples;Min_cycle;Max_cycle;Signal;HPM_P1;HPM_P2
2022/12/04 00:01:27;;;;;;;322.40;289.17;;;;;;;;;;6196226;28;20086;-85
2022/12/04 00:04:29;;;;;;;315.42;282.50;;;;;;;;;;6213355;28;20073;-85
2022/12/04 00:07:30;;;;;;;314.85;282.38;;;;;;;;;;6195055;28;20046;-85
2022/12/04 00:10:32;;;;;;;327.08;293.05;;;;;;;;;;6182427;28;20046;-86
2022/12/04 00:13:35;;;;;;;318.25;285.02;;;;;;;;;;6179118;28;20047;-86
2022/12/04 00:16:37;;;;;;;316.30;283.05;;;;;;;;;;6211864;28;20058;-85
2022/12/04 00:19:39;;;;;;;323.40;289.83;;;;;;;;;;6197879;28;20058;-85
2022/12/04 00:22:41;;;;;;;322.98;289.75;;;;;;;;;;6193398;28;20081;-85
2022/12/04 00:25:47;;;;;;;323.27;290.48;;;;;;;;;;6192635;28;20065;-85
2022/12/04 00:28:49;;;;;;;332.13;297.63;;;;;;;;;;6171927;28;20116;-85
2022/12/04 00:31:51;;;;;;;325.70;291.75;;;;;;;;;;6194272;28;20524;-85
2022/12/04 00:34:53;;;;;;;327.85;293.63;;;;;;;;;;6201027;28;20077;-85
2022/12/04 00:37:55;;;;;;;329.70;295.48;;;;;;;;;;6196003;28;20138;-86
2022/12/04 00:40:56;;;;;;;330.63;296.77;;;;;;;;;;6200013;28;20043;-86
2022/12/04 00:43:59;;;;;;;345.02;309.60;;;;;;;;;;6199079;28;20061;-86
2022/12/04 00:47:01;;;;;;;338.52;303.95;;;;;;;;;;6197495;28;20115;-84
2022/12/04 00:50:04;;;;;;;336.38;301.77;;;;;;;;;;6214747;28;20038;-84
2022/12/04 00:53:06;;;;;;;325.52;291.98;;;;;;;;;;6193112;28;20102;-84
2022/12/04 00:56:13;;;;;;;338.52;304.08;;;;;;;;;;6196388;28;20053;-83
2022/12/04 00:59:15;;;;;;;321.20;288.52;;;;;;;;;;6212498;28;20100;-83
2022/12/04 01:02:17;;;;;;;329.50;295.83;;;;;;;;;;6197707;28;20042;-83
2022/12/04 01:05:18;;;;;;;330.85;297.00;;;;;;;;;;6197179;28;20056;-84
2022/12/04 01:08:20;;;;;;;329.23;295.17;;;;;;;;;;6179084;28;20063;-83
2022/12/04 01:11:24;;;;;;;328.05;294.38;;;;;;;;;;6198165;28;20109;-84
2022/12/04 01:14:26;;;;;;;327.90;294.42;;;;;;;;;;6195834;28;20050;-83
2022/12/04 01:17:27;;;;;;;347.83;312.27;;;;;;;;;;6212024;28;20046;-83
2022/12/04 01:20:29;;;;;;;323.75;290.30;;;;;;;;;;6194379;28;20046;-83
2022/12/04 01:23:33;;;;;;;319.85;287.88;;;;;;;;;;6192215;28;20061;-83
2022/12/04 01:26:35;;;;;;;324.92;291.75;;;;;;;;;;6218029;28;20077;-83
2022/12/04 01:29:37;;;;;;;322.65;289.98;;;;;;;;;;6190701;28;20861;-84
2022/12/04 01:32:38;;;;;;;320.73;288.20;;;;;;;;;;6217139;28;20127;-84
2022/12/04 01:35:40;;;;;;;325.52;292.25;;;;;;;;;;6187303;28;20061;-84
2022/12/04 01:38:43;;;;;;;321.13;288.55;;;;;;;;;;6179897;28;20169;-84
2022/12/04 01:41:44;;;;;;;318.10;285.77;;;;;;;;;;6181733;28;20177;-83
2022/12/04 01:45:23;;;;;;;327.52;293.90;;;;;;;;;;6166734;28;20125;-83
2022/12/04 01:48:34;;;;;;;329.17;295.50;;;;;;;;;;6182649;28;20108;-83
2022/12/04 01:51:39;;;;;;;329.08;295.75;;;;;;;;;;6163116;28;20043;-83
2022/12/04 01:54:45;;;;;;;339.52;304.80;;;;;;;;;;6186065;28;20049;-83
2022/12/04 01:57:47;;;;;;;333.88;299.58;;;;;;;;;;6209363;28;20636;-83
2022/12/04 02:00:53;;;;;;;333.40;299.63;;;;;;;;;;6188782;28;20137;-83
2022/12/04 02:04:01;;;;;;;321.70;288.92;;;;;;;;;;6192977;28;20692;-83
2022/12/04 02:07:03;;;;;;;336.45;301.67;;;;;;;;;;6211522;28;20038;-83
2022/12/04 02:10:07;;;;;;;330.88;296.08;;;;;;;;;;6191925;28;20043;-83
2022/12/04 02:13:15;;;;;;;331.42;297.52;;;;;;;;;;6175567;28;20049;-83
2022/12/04 02:16:23;;;;;;;334.55;300.00;;;;;;;;;;6190993;28;20112;-83
2022/12/04 02:19:36;;;;;;;345.52;310.40;;;;;;;;;;6208320;28;20070;-83
2022/12/04 02:23:02;;;;;;;344.58;309.88;;;;;;;;;;6208533;28;20042;-83
2022/12/04 02:26:31;;;;;;;343.95;309.60;;;;;;;;;;6190957;28;20058;-83
2022/12/04 02:30:07;;;;;;;341.27;307.17;;;;;;;;;;6177662;28;20050;-82
2022/12/04 02:33:24;;;;;;;343.83;309.42;;;;;;;;;;6157082;28;20046;-83
2022/12/04 02:36:35;;;;;;;333.13;299.08;;;;;;;;;;6191708;28;20053;-83
2022/12/04 02:39:53;;;;;;;331.50;297.65;;;;;;;;;;6203219;28;20050;-84
2022/12/04 02:43:16;;;;;;;345.88;311.42;;;;;;;;;;6195542;28;20050;-83
2022/12/04 02:46:27;;;;;;;357.25;321.15;;;;;;;;;;6189162;28;20065;-83
2022/12/04 02:49:39;;;;;;;349.33;313.52;;;;;;;;;;6199071;28;20145;-83
2022/12/04 02:53:06;;;;;;;351.67;315.88;;;;;;;;;;6195460;28;20046;-83
2022/12/04 02:56:12;;;;;;;278.60;249.68;;;;;;;;;;6178195;28;20498;-83
2022/12/04 02:59:21;;;;;;;344.00;309.25;;;;;;;;;;6176829;28;20054;-83
2022/12/04 03:02:38;;;;;;;358.40;321.92;;;;;;;;;;6192770;28;20124;-83
2022/12/04 03:05:52;;;;;;;373.23;334.83;;;;;;;;;;6191588;28;20129;-83
2022/12/04 03:09:01;;;;;;;375.40;337.13;;;;;;;;;;6206717;28;20080;-82
2022/12/04 03:12:08;;;;;;;375.52;337.30;;;;;;;;;;6203839;28;20102;-83
2022/12/04 03:15:14;;;;;;;381.35;342.30;;;;;;;;;;6204120;28;20060;-83
2022/12/04 03:18:25;;;;;;;388.77;349.00;;;;;;;;;;6198516;28;20050;-83
2022/12/04 03:21:34;;;;;;;385.38;346.38;;;;;;;;;;6188296;28;20038;-83
2022/12/04 03:24:41;;;;;;;372.20;334.00;;;;;;;;;;6191047;28;20046;-83
2022/12/04 03:27:53;;;;;;;379.92;341.65;;;;;;;;;;6174079;28;20236;-83
2022/12/04 03:31:01;;;;;;;380.25;341.77;;;;;;;;;;6205021;28;20038;-83
2022/12/04 03:34:06;;;;;;;377.48;339.38;;;;;;;;;;6192945;28;20053;-83
2022/12/04 03:37:13;;;;;;;367.98;330.85;;;;;;;;;;6189992;28;20052;-83
2022/12/04 03:40:27;;;;;;;378.50;340.45;;;;;;;;;;6195966;28;20046;-83
2022/12/04 03:44:14;;;;;;;382.50;343.85;;;;;;;;;;6186858;28;20055;-84
2022/12/04 03:47:19;;;;;;;387.55;348.83;;;;;;;;;;6183150;28;20050;-83
2022/12/04 03:51:03;;;;;;;390.50;351.08;;;;;;;;;;6202780;28;20169;-83
2022/12/04 03:54:19;;;;;;;381.20;342.95;;;;;;;;;;6177233;28;20536;-83
2022/12/04 03:57:27;;;;;;;378.73;340.48;;;;;;;;;;6200524;28;20104;-83
2022/12/04 04:00:31;;;;;;;377.20;339.00;;;;;;;;;;6182138;28;20717;-82
2022/12/04 04:03:37;;;;;;;379.63;340.80;;;;;;;;;;6177639;28;20086;-83
2022/12/04 04:06:48;;;;;;;382.88;343.75;;;;;;;;;;6182943;28;20066;-83
2022/12/04 04:09:55;;;;;;;385.40;345.73;;;;;;;;;;6166750;28;20047;-83
2022/12/04 04:26:38;;;;;;;;;;;;;;;;;;6193504;28;20216;-83
2022/12/04 04:29:42;;;;;;;388.27;349.13;;;;;;;;;;6196779;28;19922;-83
2022/12/04 04:33:10;;;;;;;386.58;347.42;;;;;;;;;;6206137;28;20054;-83
2022/12/04 04:36:27;;;;;;;409.58;366.90;;;;;;;;;;6193489;28;20421;-83
2022/12/04 04:39:38;;;;;;;410.02;367.70;;;;;;;;;;6179389;28;20042;-83
2022/12/04 04:42:49;;;;;;;402.35;360.05;;;;;;;;;;6209087;28;20054;-83
2022/12/04 04:46:03;;;;;;;398.90;357.58;;;;;;;;;;6191708;28;20398;-83
2022/12/04 04:49:09;;;;;;;398.98;357.25;;;;;;;;;;6212524;28;20149;-83
2022/12/04 04:52:10;;;;;;;396.80;355.27;;;;;;;;;;6194124;28;20088;-83
2022/12/04 04:55:14;;;;;;;396.30;354.38;;;;;;;;;;6200719;28;20154;-83
2022/12/04 04:58:18;;;;;;;403.35;361.08;;;;;;;;;;6217188;28;20050;-83
2022/12/04 05:01:25;;;;;;;414.40;370.52;;;;;;;;;;6194187;28;20046;-83
2022/12/04 05:04:27;;;;;;;405.27;362.40;;;;;;;;;;6193713;28;20062;-83
2022/12/04 05:07:28;;;;;;;422.65;377.88;;;;;;;;;;6193487;28;20057;-83
2022/12/04 05:10:30;;;;;;;420.73;376.08;;;;;;;;;;6193981;28;20600;-83
2022/12/04 05:13:32;;;;;;;409.77;366.08;;;;;;;;;;6196279;28;20080;-83
2022/12/04 05:16:34;;;;;;;414.67;372.05;;;;;;;;;;6192945;28;20137;-83
2022/12/04 05:19:54;;;;;;;403.73;361.73;;;;;;;;;;6195840;28;20050;-83
2022/12/04 05:22:58;;;;;;;406.58;364.33;;;;;;;;;;6179232;28;20065;-83
2022/12/04 05:26:03;;;;;;;396.50;355.25;;;;;;;;;;6192371;28;20047;-83
